sensor_id;sensor_type;location;lat;lon;timestamp;P1;durP1;ratioP1;P2;durP2;ratioP2
39524;SDS011;25203;50.754;6.978;2023-04-15T00:00:38;3.83;;;1.65;;
39524;SDS011;25203;50.754;6.978;2023-04-15T00:02:39;5.65;;;1.95;;
39524;SDS011;25203;50.754;6.978;2023-04-15T00:04:39;4.35;;;2.08;;
39524;SDS011;25203;50.754;6.978;2023-04-15T00:06:40;5.55;;;1.77;;
39524;SDS011;25203;50.754;6.978;2023-04-15T00:08:40;5.20;;;1.92;;
39524;SDS011;25203;50.754;6.978;2023-04-15T00:10:41;5.85;;;1.90;;
39524;SDS011;25203;50.754;6.978;2023-04-15T00:12:45;5.15;;;2.17;;
39524;SDS011;25203;50.754;6.978;2023-04-15T00:14:46;2.58;;;2.10;;
39524;SDS011;25203;50.754;6.978;2023-04-15T00:16:46;6.75;;;1.95;;
39524;SDS011;25203;50.754;6.978;2023-04-15T00:18:49;2.80;;;1.58;;
39524;SDS011;25203;50.754;6.978;2023-04-15T00:20:49;5.95;;;2.20;;
39524;SDS011;25203;50.754;6.978;2023-04-15T00:22:51;3.28;;;1.90;;
39524;SDS011;25203;50.754;6.978;2023-04-15T00:24:52;7.05;;;2.28;;
39524;SDS011;25203;50.754;6.978;2023-04-15T00:26:53;3.20;;;2.00;;
39524;SDS011;25203;50.754;6.978;2023-04-15T00:28:54;2.85;;;1.88;;
39524;SDS011;25203;50.754;6.978;2023-04-15T00:30:54;7.47;;;2.20;;
39524;SDS011;25203;50.754;6.978;2023-04-15T00:32:55;11.63;;;2.55;;
39524;SDS011;25203;50.754;6.978;2023-04-15T00:34:56;5.80;;;2.38;;
39524;SDS011;25203;50.754;6.978;2023-04-15T00:36:56;3.05;;;2.10;;
39524;SDS011;25203;50.754;6.978;2023-04-15T00:38:57;3.28;;;1.98;;
39524;SDS011;25203;50.754;6.978;2023-04-15T00:40:57;5.60;;;2.15;;
39524;SDS011;25203;50.754;6.978;2023-04-15T00:42:58;8.13;;;2.92;;
39524;SDS011;25203;50.754;6.978;2023-04-15T00:44:59;9.30;;;2.72;;
39524;SDS011;25203;50.754;6.978;2023-04-15T00:47:00;3.22;;;2.25;;
39524;SDS011;25203;50.754;6.978;2023-04-15T00:49:04;5.72;;;2.45;;
39524;SDS011;25203;50.754;6.978;2023-04-15T00:51:05;4.35;;;1.83;;
39524;SDS011;25203;50.754;6.978;2023-04-15T00:53:06;6.25;;;2.10;;
39524;SDS011;25203;50.754;6.978;2023-04-15T00:55:07;5.32;;;2.60;;
39524;SDS011;25203;50.754;6.978;2023-04-15T00:57:08;7.82;;;2.83;;
39524;SDS011;25203;50.754;6.978;2023-04-15T00:59:09;6.18;;;3.17;;
39524;SDS011;25203;50.754;6.978;2023-04-15T01:01:09;5.53;;;2.50;;
39524;SDS011;25203;50.754;6.978;2023-04-15T01:03:10;4.70;;;2.70;;
39524;SDS011;25203;50.754;6.978;2023-04-15T01:05:11;7.28;;;3.17;;
39524;SDS011;25203;50.754;6.978;2023-04-15T01:07:11;6.68;;;3.28;;
39524;SDS011;25203;50.754;6.978;2023-04-15T01:09:12;7.50;;;3.47;;
39524;SDS011;25203;50.754;6.978;2023-04-15T01:11:13;8.10;;;4.43;;
39524;SDS011;25203;50.754;6.978;2023-04-15T01:13:14;8.55;;;3.33;;
39524;SDS011;25203;50.754;6.978;2023-04-15T01:15:15;9.15;;;3.25;;
39524;SDS011;25203;50.754;6.978;2023-04-15T01:17:16;9.05;;;3.17;;
39524;SDS011;25203;50.754;6.978;2023-04-15T01:19:16;7.97;;;3.35;;
39524;SDS011;25203;50.754;6.978;2023-04-15T01:21:17;6.68;;;3.25;;
39524;SDS011;25203;50.754;6.978;2023-04-15T01:23:19;9.82;;;3.78;;
39524;SDS011;25203;50.754;6.978;2023-04-15T01:25:27;6.80;;;3.10;;
39524;SDS011;25203;50.754;6.978;2023-04-15T01:27:33;7.60;;;4.53;;
39524;SDS011;25203;50.754;6.978;2023-04-15T01:29:37;8.23;;;3.60;;
39524;SDS011;25203;50.754;6.978;2023-04-15T01:31:38;8.18;;;4.43;;
39524;SDS011;25203;50.754;6.978;2023-04-15T01:33:39;7.55;;;3.25;;
39524;SDS011;25203;50.754;6.978;2023-04-15T01:35:41;10.82;;;3.72;;
39524;SDS011;25203;50.754;6.978;2023-04-15T01:37:43;7.13;;;3.45;;
39524;SDS011;25203;50.754;6.978;2023-04-15T01:39:44;8.68;;;3.33;;
39524;SDS011;25203;50.754;6.978;2023-04-15T01:41:45;7.38;;;3.22;;
39524;SDS011;25203;50.754;6.978;2023-04-15T01:43:46;8.77;;;3.10;;
39524;SDS011;25203;50.754;6.978;2023-04-15T01:45:46;8.93;;;2.60;;
39524;SDS011;25203;50.754;6.978;2023-04-15T01:47:47;5.75;;;2.88;;
39524;SDS011;25203;50.754;6.978;2023-04-15T01:49:48;11.45;;;3.03;;
39524;SDS011;25203;50.754;6.978;2023-04-15T01:51:48;6.35;;;2.83;;
39524;SDS011;25203;50.754;6.978;2023-04-15T01:53:49;5.97;;;3.28;;
39524;SDS011;25203;50.754;6.978;2023-04-15T01:55:51;5.63;;;3.05;;
39524;SDS011;25203;50.754;6.978;2023-04-15T01:57:51;9.68;;;3.03;;
39524;SDS011;25203;50.754;6.978;2023-04-15T01:59:52;8.00;;;3.13;;
39524;SDS011;25203;50.754;6.978;2023-04-15T02:01:52;5.57;;;2.83;;
39524;SDS011;25203;50.754;6.978;2023-04-15T02:03:54;6.57;;;3.17;;
39524;SDS011;25203;50.754;6.978;2023-04-15T02:05:54;8.48;;;3.63;;
39524;SDS011;25203;50.754;6.978;2023-04-15T02:07:56;6.78;;;3.17;;
39524;SDS011;25203;50.754;6.978;2023-04-15T02:09:57;9.02;;;2.97;;
39524;SDS011;25203;50.754;6.978;2023-04-15T02:11:57;4.05;;;2.97;;
39524;SDS011;25203;50.754;6.978;2023-04-15T02:13:58;8.05;;;3.45;;
39524;SDS011;25203;50.754;6.978;2023-04-15T02:15:59;6.18;;;3.40;;
39524;SDS011;25203;50.754;6.978;2023-04-15T02:17:59;6.35;;;3.08;;
39524;SDS011;25203;50.754;6.978;2023-04-15T02:20:00;7.93;;;3.85;;
39524;SDS011;25203;50.754;6.978;2023-04-15T02:22:03;13.95;;;4.60;;
39524;SDS011;25203;50.754;6.978;2023-04-15T02:24:03;8.63;;;3.20;;
39524;SDS011;25203;50.754;6.978;2023-04-15T02:26:04;6.53;;;3.08;;
39524;SDS011;25203;50.754;6.978;2023-04-15T02:28:05;7.18;;;3.28;;
39524;SDS011;25203;50.754;6.978;2023-04-15T02:30:06;7.82;;;3.58;;
39524;SDS011;25203;50.754;6.978;2023-04-15T02:32:07;3.92;;;2.47;;
39524;SDS011;25203;50.754;6.978;2023-04-15T02:34:07;5.32;;;2.88;;
39524;SDS011;25203;50.754;6.978;2023-04-15T02:36:08;5.80;;;2.65;;
39524;SDS011;25203;50.754;6.978;2023-04-15T02:38:10;6.72;;;3.38;;
39524;SDS011;25203;50.754;6.978;2023-04-15T02:40:11;7.35;;;3.25;;
39524;SDS011;25203;50.754;6.978;2023-04-15T02:42:12;7.18;;;3.22;;
39524;SDS011;25203;50.754;6.978;2023-04-15T02:44:12;7.53;;;3.63;;
39524;SDS011;25203;50.754;6.978;2023-04-15T02:46:13;12.35;;;3.40;;
39524;SDS011;25203;50.754;6.978;2023-04-15T02:48:14;5.82;;;3.00;;
39524;SDS011;25203;50.754;6.978;2023-04-15T02:50:16;7.30;;;3.17;;
39524;SDS011;25203;50.754;6.978;2023-04-15T02:52:17;5.57;;;3.20;;
39524;SDS011;25203;50.754;6.978;2023-04-15T02:54:18;7.57;;;3.15;;
39524;SDS011;25203;50.754;6.978;2023-04-15T02:56:19;7.57;;;2.65;;
39524;SDS011;25203;50.754;6.978;2023-04-15T02:58:22;9.13;;;3.35;;
39524;SDS011;25203;50.754;6.978;2023-04-15T03:00:22;9.90;;;3.97;;
39524;SDS011;25203;50.754;6.978;2023-04-15T03:02:24;9.13;;;3.45;;
39524;SDS011;25203;50.754;6.978;2023-04-15T03:04:25;12.82;;;3.13;;
39524;SDS011;25203;50.754;6.978;2023-04-15T03:06:26;6.90;;;3.13;;
39524;SDS011;25203;50.754;6.978;2023-04-15T03:08:26;5.47;;;2.97;;
39524;SDS011;25203;50.754;6.978;2023-04-15T03:10:27;5.90;;;3.10;;
39524;SDS011;25203;50.754;6.978;2023-04-15T03:12:27;3.55;;;2.30;;
39524;SDS011;25203;50.754;6.978;2023-04-15T03:14:29;5.28;;;2.67;;
39524;SDS011;25203;50.754;6.978;2023-04-15T03:16:29;3.30;;;2.53;;
39524;SDS011;25203;50.754;6.978;2023-04-15T03:18:30;7.53;;;3.35;;
39524;SDS011;25203;50.754;6.978;2023-04-15T03:20:31;5.95;;;3.25;;
39524;SDS011;25203;50.754;6.978;2023-04-15T03:22:31;5.70;;;3.00;;
39524;SDS011;25203;50.754;6.978;2023-04-15T03:24:32;10.18;;;3.67;;
39524;SDS011;25203;50.754;6.978;2023-04-15T03:26:33;7.75;;;3.15;;
39524;SDS011;25203;50.754;6.978;2023-04-15T03:28:33;10.20;;;3.65;;
39524;SDS011;25203;50.754;6.978;2023-04-15T03:30:34;7.13;;;3.63;;
39524;SDS011;25203;50.754;6.978;2023-04-15T03:32:34;8.65;;;3.42;;
39524;SDS011;25203;50.754;6.978;2023-04-15T03:34:35;8.00;;;3.05;;
39524;SDS011;25203;50.754;6.978;2023-04-15T03:36:36;8.70;;;2.70;;
39524;SDS011;25203;50.754;6.978;2023-04-15T03:38:36;9.80;;;3.22;;
39524;SDS011;25203;50.754;6.978;2023-04-15T03:40:40;8.00;;;4.15;;
39524;SDS011;25203;50.754;6.978;2023-04-15T03:42:41;10.35;;;3.47;;
39524;SDS011;25203;50.754;6.978;2023-04-15T03:44:41;5.32;;;2.95;;
39524;SDS011;25203;50.754;6.978;2023-04-15T03:46:42;7.55;;;3.75;;
39524;SDS011;25203;50.754;6.978;2023-04-15T03:48:42;9.48;;;2.95;;
39524;SDS011;25203;50.754;6.978;2023-04-15T03:50:43;5.97;;;3.17;;
39524;SDS011;25203;50.754;6.978;2023-04-15T03:52:45;7.72;;;3.70;;
39524;SDS011;25203;50.754;6.978;2023-04-15T03:54:45;8.02;;;3.72;;
39524;SDS011;25203;50.754;6.978;2023-04-15T03:56:46;9.57;;;3.22;;
39524;SDS011;25203;50.754;6.978;2023-04-15T03:58:47;5.20;;;2.70;;
39524;SDS011;25203;50.754;6.978;2023-04-15T04:00:47;4.22;;;2.78;;
39524;SDS011;25203;50.754;6.978;2023-04-15T04:02:48;7.15;;;2.95;;
39524;SDS011;25203;50.754;6.978;2023-04-15T04:04:48;10.23;;;3.50;;
39524;SDS011;25203;50.754;6.978;2023-04-15T04:06:49;11.25;;;3.22;;
39524;SDS011;25203;50.754;6.978;2023-04-15T04:08:50;14.65;;;4.57;;
39524;SDS011;25203;50.754;6.978;2023-04-15T04:10:50;8.57;;;3.75;;
39524;SDS011;25203;50.754;6.978;2023-04-15T04:12:51;5.20;;;2.83;;
39524;SDS011;25203;50.754;6.978;2023-04-15T04:14:51;6.40;;;3.15;;
39524;SDS011;25203;50.754;6.978;2023-04-15T04:16:52;6.00;;;3.15;;
39524;SDS011;25203;50.754;6.978;2023-04-15T04:18:52;6.43;;;3.22;;
39524;SDS011;25203;50.754;6.978;2023-04-15T04:20:53;6.65;;;3.30;;
39524;SDS011;25203;50.754;6.978;2023-04-15T04:22:54;5.28;;;3.13;;
39524;SDS011;25203;50.754;6.978;2023-04-15T04:24:54;5.53;;;2.60;;
39524;SDS011;25203;50.754;6.978;2023-04-15T04:26:55;5.90;;;2.92;;
39524;SDS011;25203;50.754;6.978;2023-04-15T04:28:56;5.13;;;2.70;;
39524;SDS011;25203;50.754;6.978;2023-04-15T04:30:57;4.55;;;3.08;;
39524;SDS011;25203;50.754;6.978;2023-04-15T04:32:57;9.43;;;3.15;;
39524;SDS011;25203;50.754;6.978;2023-04-15T04:34:58;7.15;;;3.55;;
39524;SDS011;25203;50.754;6.978;2023-04-15T04:36:59;10.00;;;3.47;;
39524;SDS011;25203;50.754;6.978;2023-04-15T04:39:00;10.95;;;3.17;;
39524;SDS011;25203;50.754;6.978;2023-04-15T04:41:00;7.65;;;3.05;;
39524;SDS011;25203;50.754;6.978;2023-04-15T04:43:01;8.55;;;3.20;;
39524;SDS011;25203;50.754;6.978;2023-04-15T04:45:02;5.65;;;2.85;;
39524;SDS011;25203;50.754;6.978;2023-04-15T04:47:04;6.55;;;2.72;;
39524;SDS011;25203;50.754;6.978;2023-04-15T04:49:06;4.85;;;2.70;;
39524;SDS011;25203;50.754;6.978;2023-04-15T04:51:07;4.78;;;2.72;;
39524;SDS011;25203;50.754;6.978;2023-04-15T04:53:08;5.68;;;2.55;;
39524;SDS011;25203;50.754;6.978;2023-04-15T04:55:09;4.85;;;2.50;;
39524;SDS011;25203;50.754;6.978;2023-04-15T04:57:09;6.93;;;2.90;;
39524;SDS011;25203;50.754;6.978;2023-04-15T04:59:12;3.95;;;2.83;;
39524;SDS011;25203;50.754;6.978;2023-04-15T05:01:13;4.05;;;2.78;;
39524;SDS011;25203;50.754;6.978;2023-04-15T05:03:13;8.73;;;2.65;;
39524;SDS011;25203;50.754;6.978;2023-04-15T05:05:14;5.38;;;2.30;;
39524;SDS011;25203;50.754;6.978;2023-04-15T05:07:15;6.97;;;2.58;;
39524;SDS011;25203;50.754;6.978;2023-04-15T05:09:15;4.70;;;2.60;;
39524;SDS011;25203;50.754;6.978;2023-04-15T05:11:16;6.60;;;2.60;;
39524;SDS011;25203;50.754;6.978;2023-04-15T05:13:17;3.95;;;2.78;;
39524;SDS011;25203;50.754;6.978;2023-04-15T05:15:18;4.65;;;2.28;;
39524;SDS011;25203;50.754;6.978;2023-04-15T05:17:19;3.67;;;2.22;;
39524;SDS011;25203;50.754;6.978;2023-04-15T05:19:19;4.05;;;1.90;;
39524;SDS011;25203;50.754;6.978;2023-04-15T05:21:20;8.18;;;2.70;;
39524;SDS011;25203;50.754;6.978;2023-04-15T05:23:21;5.53;;;2.20;;
39524;SDS011;25203;50.754;6.978;2023-04-15T05:25:21;2.85;;;2.08;;
39524;SDS011;25203;50.754;6.978;2023-04-15T05:27:22;6.05;;;2.70;;
39524;SDS011;25203;50.754;6.978;2023-04-15T05:29:23;5.90;;;2.38;;
39524;SDS011;25203;50.754;6.978;2023-04-15T05:31:24;5.90;;;2.45;;
39524;SDS011;25203;50.754;6.978;2023-04-15T05:33:25;3.47;;;2.17;;
39524;SDS011;25203;50.754;6.978;2023-04-15T05:35:26;4.72;;;2.38;;
39524;SDS011;25203;50.754;6.978;2023-04-15T05:37:27;8.60;;;2.42;;
39524;SDS011;25203;50.754;6.978;2023-04-15T05:39:27;6.05;;;2.00;;
39524;SDS011;25203;50.754;6.978;2023-04-15T05:41:28;5.72;;;2.30;;
39524;SDS011;25203;50.754;6.978;2023-04-15T05:43:29;4.95;;;2.38;;
39524;SDS011;25203;50.754;6.978;2023-04-15T05:45:30;4.68;;;2.28;;
39524;SDS011;25203;50.754;6.978;2023-04-15T05:47:30;6.95;;;2.65;;
39524;SDS011;25203;50.754;6.978;2023-04-15T05:49:31;5.88;;;2.58;;
39524;SDS011;25203;50.754;6.978;2023-04-15T05:51:31;4.95;;;2.00;;
39524;SDS011;25203;50.754;6.978;2023-04-15T05:53:32;6.97;;;2.35;;
39524;SDS011;25203;50.754;6.978;2023-04-15T05:55:33;5.30;;;2.47;;
39524;SDS011;25203;50.754;6.978;2023-04-15T05:57:33;6.95;;;2.33;;
39524;SDS011;25203;50.754;6.978;2023-04-15T05:59:34;4.20;;;2.45;;
39524;SDS011;25203;50.754;6.978;2023-04-15T06:01:35;10.93;;;2.97;;
39524;SDS011;25203;50.754;6.978;2023-04-15T06:03:35;7.85;;;3.38;;
39524;SDS011;25203;50.754;6.978;2023-04-15T06:05:37;8.77;;;3.40;;
39524;SDS011;25203;50.754;6.978;2023-04-15T06:07:38;6.35;;;2.97;;
39524;SDS011;25203;50.754;6.978;2023-04-15T06:09:38;6.57;;;3.00;;
39524;SDS011;25203;50.754;6.978;2023-04-15T06:11:39;6.22;;;2.75;;
39524;SDS011;25203;50.754;6.978;2023-04-15T06:13:40;8.93;;;3.35;;
39524;SDS011;25203;50.754;6.978;2023-04-15T06:15:40;8.20;;;3.65;;
39524;SDS011;25203;50.754;6.978;2023-04-15T06:17:41;8.27;;;3.67;;
39524;SDS011;25203;50.754;6.978;2023-04-15T06:19:42;9.95;;;3.88;;
39524;SDS011;25203;50.754;6.978;2023-04-15T06:21:42;6.05;;;3.13;;
39524;SDS011;25203;50.754;6.978;2023-04-15T06:23:43;7.88;;;3.63;;
39524;SDS011;25203;50.754;6.978;2023-04-15T06:25:44;7.30;;;3.78;;
39524;SDS011;25203;50.754;6.978;2023-04-15T06:27:44;7.78;;;3.78;;
39524;SDS011;25203;50.754;6.978;2023-04-15T06:29:45;8.52;;;3.65;;
39524;SDS011;25203;50.754;6.978;2023-04-15T06:31:46;9.70;;;4.05;;
39524;SDS011;25203;50.754;6.978;2023-04-15T06:33:48;9.77;;;4.25;;
39524;SDS011;25203;50.754;6.978;2023-04-15T06:35:48;7.53;;;3.88;;
39524;SDS011;25203;50.754;6.978;2023-04-15T06:37:49;7.75;;;3.53;;
39524;SDS011;25203;50.754;6.978;2023-04-15T06:39:50;6.68;;;4.03;;
39524;SDS011;25203;50.754;6.978;2023-04-15T06:41:51;6.28;;;3.50;;
39524;SDS011;25203;50.754;6.978;2023-04-15T06:43:52;7.90;;;3.50;;
39524;SDS011;25203;50.754;6.978;2023-04-15T06:45:52;8.55;;;3.33;;
39524;SDS011;25203;50.754;6.978;2023-04-15T06:47:53;6.13;;;3.53;;
39524;SDS011;25203;50.754;6.978;2023-04-15T06:49:53;7.50;;;3.33;;
39524;SDS011;25203;50.754;6.978;2023-04-15T06:51:54;7.50;;;3.28;;
39524;SDS011;25203;50.754;6.978;2023-04-15T06:53:55;8.13;;;3.83;;
39524;SDS011;25203;50.754;6.978;2023-04-15T06:55:56;5.28;;;3.30;;
39524;SDS011;25203;50.754;6.978;2023-04-15T06:57:56;7.22;;;4.10;;
39524;SDS011;25203;50.754;6.978;2023-04-15T06:59:57;7.05;;;4.22;;
39524;SDS011;25203;50.754;6.978;2023-04-15T07:01:58;10.13;;;4.18;;
39524;SDS011;25203;50.754;6.978;2023-04-15T07:03:58;6.78;;;3.78;;
39524;SDS011;25203;50.754;6.978;2023-04-15T07:05:59;9.20;;;3.90;;
39524;SDS011;25203;50.754;6.978;2023-04-15T07:08:00;9.40;;;3.97;;
39524;SDS011;25203;50.754;6.978;2023-04-15T07:10:01;8.55;;;4.20;;
39524;SDS011;25203;50.754;6.978;2023-04-15T07:12:01;12.68;;;4.80;;
39524;SDS011;25203;50.754;6.978;2023-04-15T07:14:02;8.73;;;3.75;;
39524;SDS011;25203;50.754;6.978;2023-04-15T07:16:03;6.32;;;3.70;;
39524;SDS011;25203;50.754;6.978;2023-04-15T07:18:04;7.25;;;4.18;;
39524;SDS011;25203;50.754;6.978;2023-04-15T07:20:04;5.55;;;3.70;;
39524;SDS011;25203;50.754;6.978;2023-04-15T07:22:05;9.63;;;5.13;;
39524;SDS011;25203;50.754;6.978;2023-04-15T07:24:06;6.63;;;4.95;;
39524;SDS011;25203;50.754;6.978;2023-04-15T07:26:07;8.40;;;5.20;;
39524;SDS011;25203;50.754;6.978;2023-04-15T07:28:08;15.40;;;5.90;;
39524;SDS011;25203;50.754;6.978;2023-04-15T07:30:09;9.30;;;5.18;;
39524;SDS011;25203;50.754;6.978;2023-04-15T07:32:11;9.63;;;4.05;;
39524;SDS011;25203;50.754;6.978;2023-04-15T07:34:12;49.60;;;16.50;;
39524;SDS011;25203;50.754;6.978;2023-04-15T07:36:12;29.05;;;11.32;;
39524;SDS011;25203;50.754;6.978;2023-04-15T07:38:13;12.18;;;5.68;;
39524;SDS011;25203;50.754;6.978;2023-04-15T07:40:13;14.45;;;7.22;;
39524;SDS011;25203;50.754;6.978;2023-04-15T07:42:15;10.77;;;6.75;;
39524;SDS011;25203;50.754;6.978;2023-04-15T07:44:15;9.32;;;6.50;;
39524;SDS011;25203;50.754;6.978;2023-04-15T07:46:16;7.30;;;4.78;;
39524;SDS011;25203;50.754;6.978;2023-04-15T07:48:17;10.45;;;4.75;;
39524;SDS011;25203;50.754;6.978;2023-04-15T07:50:17;7.97;;;4.57;;
39524;SDS011;25203;50.754;6.978;2023-04-15T07:52:18;10.50;;;5.45;;
39524;SDS011;25203;50.754;6.978;2023-04-15T07:54:19;10.82;;;5.57;;
39524;SDS011;25203;50.754;6.978;2023-04-15T07:56:19;13.57;;;4.35;;
39524;SDS011;25203;50.754;6.978;2023-04-15T07:58:21;7.97;;;4.95;;
39524;SDS011;25203;50.754;6.978;2023-04-15T08:00:22;6.68;;;4.38;;
39524;SDS011;25203;50.754;6.978;2023-04-15T08:02:22;7.78;;;5.20;;
39524;SDS011;25203;50.754;6.978;2023-04-15T08:04:23;6.22;;;4.57;;
39524;SDS011;25203;50.754;6.978;2023-04-15T08:06:24;10.95;;;5.03;;
39524;SDS011;25203;50.754;6.978;2023-04-15T08:08:24;8.15;;;4.95;;
39524;SDS011;25203;50.754;6.978;2023-04-15T08:10:25;7.57;;;5.38;;
39524;SDS011;25203;50.754;6.978;2023-04-15T08:12:26;12.52;;;5.80;;
39524;SDS011;25203;50.754;6.978;2023-04-15T08:14:27;11.43;;;4.82;;
39524;SDS011;25203;50.754;6.978;2023-04-15T08:16:28;11.05;;;5.43;;
39524;SDS011;25203;50.754;6.978;2023-04-15T08:18:29;7.28;;;4.45;;
39524;SDS011;25203;50.754;6.978;2023-04-15T08:20:29;7.60;;;4.35;;
39524;SDS011;25203;50.754;6.978;2023-04-15T08:22:30;9.90;;;5.55;;
39524;SDS011;25203;50.754;6.978;2023-04-15T08:24:31;7.00;;;4.97;;
39524;SDS011;25203;50.754;6.978;2023-04-15T08:26:31;8.40;;;5.20;;
39524;SDS011;25203;50.754;6.978;2023-04-15T08:28:32;10.88;;;5.97;;
39524;SDS011;25203;50.754;6.978;2023-04-15T08:30:32;7.55;;;5.38;;
39524;SDS011;25203;50.754;6.978;2023-04-15T08:32:33;11.18;;;5.47;;
39524;SDS011;25203;50.754;6.978;2023-04-15T08:34:34;8.90;;;5.60;;
39524;SDS011;25203;50.754;6.978;2023-04-15T08:36:35;13.27;;;6.40;;
39524;SDS011;25203;50.754;6.978;2023-04-15T08:38:35;8.43;;;6.07;;
39524;SDS011;25203;50.754;6.978;2023-04-15T08:40:40;8.60;;;5.68;;
39524;SDS011;25203;50.754;6.978;2023-04-15T08:42:43;10.25;;;5.07;;
39524;SDS011;25203;50.754;6.978;2023-04-15T08:44:46;8.05;;;5.80;;
39524;SDS011;25203;50.754;6.978;2023-04-15T08:46:47;11.23;;;5.78;;
39524;SDS011;25203;50.754;6.978;2023-04-15T08:48:48;9.35;;;6.20;;
39524;SDS011;25203;50.754;6.978;2023-04-15T08:50:49;11.20;;;6.18;;
39524;SDS011;25203;50.754;6.978;2023-04-15T08:52:53;8.02;;;5.57;;
39524;SDS011;25203;50.754;6.978;2023-04-15T08:54:56;7.03;;;5.70;;
39524;SDS011;25203;50.754;6.978;2023-04-15T08:57:00;7.90;;;5.60;;
39524;SDS011;25203;50.754;6.978;2023-04-15T08:59:04;6.97;;;5.25;;
39524;SDS011;25203;50.754;6.978;2023-04-15T09:01:06;8.38;;;6.03;;
39524;SDS011;25203;50.754;6.978;2023-04-15T09:03:07;9.45;;;5.50;;
39524;SDS011;25203;50.754;6.978;2023-04-15T09:05:08;8.10;;;5.35;;
39524;SDS011;25203;50.754;6.978;2023-04-15T09:07:08;10.80;;;6.22;;
39524;SDS011;25203;50.754;6.978;2023-04-15T09:09:09;10.88;;;5.13;;
39524;SDS011;25203;50.754;6.978;2023-04-15T09:11:12;7.45;;;5.57;;
39524;SDS011;25203;50.754;6.978;2023-04-15T09:13:12;6.80;;;4.63;;
39524;SDS011;25203;50.754;6.978;2023-04-15T09:15:13;7.00;;;5.68;;
39524;SDS011;25203;50.754;6.978;2023-04-15T09:17:17;9.95;;;6.00;;
39524;SDS011;25203;50.754;6.978;2023-04-15T09:19:21;7.78;;;5.55;;
39524;SDS011;25203;50.754;6.978;2023-04-15T09:21:22;8.98;;;5.25;;
39524;SDS011;25203;50.754;6.978;2023-04-15T09:23:24;6.05;;;4.53;;
39524;SDS011;25203;50.754;6.978;2023-04-15T09:25:25;9.52;;;5.22;;
39524;SDS011;25203;50.754;6.978;2023-04-15T09:27:27;6.88;;;4.75;;
39524;SDS011;25203;50.754;6.978;2023-04-15T09:29:27;5.45;;;3.00;;
39524;SDS011;25203;50.754;6.978;2023-04-15T09:31:28;3.55;;;1.92;;
39524;SDS011;25203;50.754;6.978;2023-04-15T09:33:30;3.55;;;1.70;;
39524;SDS011;25203;50.754;6.978;2023-04-15T09:35:31;2.80;;;1.70;;
39524;SDS011;25203;50.754;6.978;2023-04-15T09:37:34;2.47;;;1.40;;
39524;SDS011;25203;50.754;6.978;2023-04-15T09:39:47;1.17;;;1.08;;
39524;SDS011;25203;50.754;6.978;2023-04-15T09:42:05;2.20;;;1.10;;
39524;SDS011;25203;50.754;6.978;2023-04-15T09:44:06;5.57;;;1.13;;
39524;SDS011;25203;50.754;6.978;2023-04-15T09:46:38;1.17;;;1.08;;
39524;SDS011;25203;50.754;6.978;2023-04-15T09:48:43;1.38;;;1.08;;
39524;SDS011;25203;50.754;6.978;2023-04-15T09:50:44;3.30;;;1.20;;
39524;SDS011;25203;50.754;6.978;2023-04-15T09:52:44;2.50;;;1.30;;
39524;SDS011;25203;50.754;6.978;2023-04-15T09:54:46;3.22;;;1.70;;
39524;SDS011;25203;50.754;6.978;2023-04-15T09:56:46;2.53;;;1.30;;
39524;SDS011;25203;50.754;6.978;2023-04-15T09:58:47;1.65;;;1.10;;
39524;SDS011;25203;50.754;6.978;2023-04-15T10:00:56;3.10;;;1.30;;
39524;SDS011;25203;50.754;6.978;2023-04-15T10:02:57;2.00;;;1.20;;
39524;SDS011;25203;50.754;6.978;2023-04-15T10:04:58;3.03;;;1.30;;
39524;SDS011;25203;50.754;6.978;2023-04-15T10:07:00;1.42;;;1.10;;
39524;SDS011;25203;50.754;6.978;2023-04-15T10:09:04;2.38;;;1.20;;
39524;SDS011;25203;50.754;6.978;2023-04-15T10:11:06;6.78;;;1.70;;
39524;SDS011;25203;50.754;6.978;2023-04-15T10:13:07;4.47;;;1.73;;
39524;SDS011;25203;50.754;6.978;2023-04-15T10:15:13;2.00;;;1.50;;
39524;SDS011;25203;50.754;6.978;2023-04-15T10:17:16;6.07;;;1.48;;
39524;SDS011;25203;50.754;6.978;2023-04-15T10:19:17;4.15;;;1.88;;
39524;SDS011;25203;50.754;6.978;2023-04-15T10:21:25;2.15;;;1.70;;
39524;SDS011;25203;50.754;6.978;2023-04-15T10:23:27;2.30;;;1.33;;
39524;SDS011;25203;50.754;6.978;2023-04-15T10:25:28;2.88;;;1.27;;
39524;SDS011;25203;50.754;6.978;2023-04-15T10:27:29;2.30;;;1.60;;
39524;SDS011;25203;50.754;6.978;2023-04-15T10:29:30;2.28;;;1.60;;
39524;SDS011;25203;50.754;6.978;2023-04-15T10:31:32;2.92;;;1.52;;
39524;SDS011;25203;50.754;6.978;2023-04-15T10:33:32;2.83;;;1.70;;
39524;SDS011;25203;50.754;6.978;2023-04-15T10:35:34;4.95;;;1.77;;
39524;SDS011;25203;50.754;6.978;2023-04-15T10:37:36;2.78;;;1.63;;
39524;SDS011;25203;50.754;6.978;2023-04-15T10:39:43;3.80;;;2.30;;
39524;SDS011;25203;50.754;6.978;2023-04-15T10:41:44;2.50;;;2.30;;
39524;SDS011;25203;50.754;6.978;2023-04-15T10:43:48;4.43;;;1.83;;
39524;SDS011;25203;50.754;6.978;2023-04-15T10:45:52;2.20;;;1.52;;
39524;SDS011;25203;50.754;6.978;2023-04-15T10:47:56;3.80;;;1.58;;
39524;SDS011;25203;50.754;6.978;2023-04-15T10:49:58;2.22;;;1.88;;
39524;SDS011;25203;50.754;6.978;2023-04-15T10:52:00;2.35;;;1.70;;
39524;SDS011;25203;50.754;6.978;2023-04-15T10:54:02;2.30;;;2.10;;
39524;SDS011;25203;50.754;6.978;2023-04-15T10:56:16;2.42;;;1.92;;
39524;SDS011;25203;50.754;6.978;2023-04-15T10:58:16;5.28;;;1.92;;
39524;SDS011;25203;50.754;6.978;2023-04-15T11:00:17;3.15;;;2.20;;
39524;SDS011;25203;50.754;6.978;2023-04-15T11:02:19;3.55;;;2.10;;
39524;SDS011;25203;50.754;6.978;2023-04-15T11:06:51;3.58;;;2.70;;
39524;SDS011;25203;50.754;6.978;2023-04-15T11:09:05;4.65;;;2.80;;
39524;SDS011;25203;50.754;6.978;2023-04-15T11:11:08;5.68;;;3.15;;
39524;SDS011;25203;50.754;6.978;2023-04-15T11:17:32;3.88;;;2.75;;
39524;SDS011;25203;50.754;6.978;2023-04-15T11:19:37;2.67;;;2.30;;
39524;SDS011;25203;50.754;6.978;2023-04-15T11:21:38;3.97;;;2.63;;
39524;SDS011;25203;50.754;6.978;2023-04-15T11:23:39;2.88;;;2.60;;
39524;SDS011;25203;50.754;6.978;2023-04-15T11:25:43;3.90;;;2.67;;
39524;SDS011;25203;50.754;6.978;2023-04-15T11:27:44;2.35;;;2.15;;
39524;SDS011;25203;50.754;6.978;2023-04-15T11:29:45;2.63;;;2.42;;
39524;SDS011;25203;50.754;6.978;2023-04-15T11:31:46;4.68;;;2.83;;
39524;SDS011;25203;50.754;6.978;2023-04-15T11:33:58;3.30;;;2.78;;
39524;SDS011;25203;50.754;6.978;2023-04-15T11:36:01;3.13;;;2.83;;
39524;SDS011;25203;50.754;6.978;2023-04-15T11:38:04;4.18;;;2.88;;
39524;SDS011;25203;50.754;6.978;2023-04-15T11:40:07;3.97;;;3.50;;
39524;SDS011;25203;50.754;6.978;2023-04-15T11:42:17;3.92;;;3.10;;
39524;SDS011;25203;50.754;6.978;2023-04-15T11:44:17;3.58;;;2.55;;
39524;SDS011;25203;50.754;6.978;2023-04-15T11:46:19;3.13;;;2.60;;
39524;SDS011;25203;50.754;6.978;2023-04-15T11:48:22;2.42;;;2.22;;
39524;SDS011;25203;50.754;6.978;2023-04-15T11:50:24;3.88;;;2.08;;
39524;SDS011;25203;50.754;6.978;2023-04-15T11:52:25;2.63;;;2.42;;
39524;SDS011;25203;50.754;6.978;2023-04-15T11:54:25;2.80;;;2.25;;
39524;SDS011;25203;50.754;6.978;2023-04-15T11:56:26;2.80;;;2.60;;
39524;SDS011;25203;50.754;6.978;2023-04-15T11:58:27;3.10;;;2.35;;
39524;SDS011;25203;50.754;6.978;2023-04-15T12:00:29;3.10;;;2.33;;
39524;SDS011;25203;50.754;6.978;2023-04-15T12:02:30;4.07;;;2.40;;
39524;SDS011;25203;50.754;6.978;2023-04-15T12:04:31;3.20;;;2.22;;
39524;SDS011;25203;50.754;6.978;2023-04-15T12:06:32;3.47;;;2.15;;
39524;SDS011;25203;50.754;6.978;2023-04-15T12:08:47;3.75;;;2.75;;
39524;SDS011;25203;50.754;6.978;2023-04-15T12:10:48;3.72;;;2.78;;
39524;SDS011;25203;50.754;6.978;2023-04-15T12:12:50;4.80;;;2.78;;
39524;SDS011;25203;50.754;6.978;2023-04-15T12:14:52;4.63;;;2.25;;
39524;SDS011;25203;50.754;6.978;2023-04-15T12:16:53;2.80;;;2.35;;